createdAt,value
2023-02-14T00:00:43.323Z,51.22
2023-02-14T00:02:44.678Z,50.81
2023-02-14T00:04:48.245Z,50.68
2023-02-14T00:06:49.606Z,51.23
2023-02-14T00:08:53.991Z,51.52
2023-02-14T00:10:55.292Z,50.86
2023-02-14T00:12:56.619Z,51.38
2023-02-14T00:15:16.442Z,51.49
2023-02-14T00:17:17.788Z,51.13
2023-02-14T00:19:19.069Z,51.12
2023-02-14T00:21:20.373Z,50.47
2023-02-14T00:23:21.675Z,51.25
2023-02-14T00:25:22.958Z,51.57
2023-02-14T00:27:24.275Z,51.31
2023-02-14T00:29:25.569Z,51.42
2023-02-14T00:31:27.008Z,51.53
2023-02-14T00:33:28.437Z,51.46
2023-02-14T00:35:29.731Z,51.78
2023-02-14T00:37:31.028Z,51.10
2023-02-14T00:39:32.385Z,51.66
2023-02-14T00:41:33.713Z,51.97
2023-02-14T00:43:35.013Z,51.97
2023-02-14T00:45:36.379Z,51.41
2023-02-14T00:47:37.780Z,51.18
2023-02-14T00:49:39.117Z,50.81
2023-02-14T00:51:40.459Z,51.44
2023-02-14T00:53:41.811Z,50.33
2023-02-14T00:55:43.112Z,51.06
2023-02-14T00:57:45.005Z,51.26
2023-02-14T00:59:46.337Z,51.21
2023-02-14T01:01:47.687Z,51.10
2023-02-14T01:03:49.061Z,51.42
2023-02-14T01:05:50.407Z,50.65
2023-02-14T01:07:51.715Z,50.91
2023-02-14T01:09:53.034Z,50.86
2023-02-14T01:11:54.388Z,50.81
2023-02-14T01:13:55.698Z,51.38
2023-02-14T01:15:57.023Z,51.16
2023-02-14T01:17:58.358Z,51.63
2023-02-14T01:19:59.655Z,52.82
2023-02-14T01:22:00.984Z,51.92
2023-02-14T01:24:02.324Z,51.37
2023-02-14T01:26:03.626Z,51.50
2023-02-14T01:28:04.971Z,44.68
2023-02-14T01:30:06.310Z,43.34
2023-02-14T01:32:07.719Z,45.48
2023-02-14T01:34:09.258Z,46.09
2023-02-14T01:36:10.606Z,45.99
2023-02-14T01:38:11.946Z,46.12
2023-02-14T01:40:13.244Z,46.59
2023-02-14T01:42:14.592Z,46.64
2023-02-14T01:44:15.898Z,47.20
2023-02-14T01:46:17.315Z,47.46
2023-02-14T01:48:18.657Z,47.68
2023-02-14T01:50:20.015Z,47.75
2023-02-14T01:52:21.321Z,48.10
2023-02-14T01:54:22.653Z,48.43
2023-02-14T01:56:23.981Z,48.52
2023-02-14T01:58:25.282Z,48.65
2023-02-14T02:00:45.262Z,48.89
2023-02-14T02:02:46.618Z,48.87
2023-02-14T02:04:48.019Z,49.33
2023-02-14T02:06:49.320Z,49.26
2023-02-14T02:08:50.612Z,49.38
2023-02-14T02:10:51.921Z,49.98
2023-02-14T02:12:53.312Z,50.17
2023-02-14T02:14:54.595Z,50.36
2023-02-14T02:16:55.958Z,50.79
2023-02-14T02:18:57.319Z,51.38
2023-02-14T02:20:58.960Z,51.33
2023-02-14T02:23:00.557Z,51.51
2023-02-14T02:25:02.222Z,51.53
2023-02-14T02:27:03.532Z,51.30
2023-02-14T02:29:04.825Z,52.24
2023-02-14T02:31:06.253Z,52.84
2023-02-14T02:33:07.615Z,52.65
2023-02-14T02:35:08.910Z,53.19
2023-02-14T02:37:10.246Z,53.31
2023-02-14T02:39:11.591Z,53.53
2023-02-14T02:41:12.880Z,54.04
2023-02-14T02:43:14.179Z,54.13
2023-02-14T02:45:15.467Z,54.39
2023-02-14T02:47:16.795Z,54.29
2023-02-14T02:49:41.117Z,54.25
2023-02-14T02:52:00.979Z,54.42
2023-02-14T02:54:02.273Z,53.94
2023-02-14T02:56:22.247Z,54.50
2023-02-14T02:58:23.570Z,54.45
2023-02-14T03:00:24.941Z,54.19
2023-02-14T03:02:26.247Z,54.04
2023-02-14T03:04:46.161Z,54.53
2023-02-14T03:06:47.522Z,53.98
2023-02-14T03:08:48.858Z,54.68
2023-02-14T03:10:50.169Z,54.81
2023-02-14T03:12:51.479Z,54.89
2023-02-14T03:14:52.807Z,54.26
2023-02-14T03:16:54.112Z,55.28
2023-02-14T03:19:13.981Z,54.66
2023-02-14T03:21:15.278Z,54.73
2023-02-14T03:23:16.577Z,54.50
2023-02-14T03:25:17.914Z,54.15
2023-02-14T03:27:19.214Z,54.46
2023-02-14T03:29:21.744Z,53.93
2023-02-14T03:31:23.227Z,54.00
2023-02-14T03:33:24.555Z,53.38
2023-02-14T03:35:25.870Z,53.59
2023-02-14T03:37:27.283Z,53.97
2023-02-14T03:39:28.639Z,53.81
2023-02-14T03:41:30.040Z,53.98
2023-02-14T03:43:31.407Z,53.43
2023-02-14T03:45:32.761Z,53.64
2023-02-14T03:47:34.134Z,53.62
2023-02-14T03:49:35.477Z,54.08
2023-02-14T03:51:36.784Z,54.15
2023-02-14T03:53:38.180Z,54.73
2023-02-14T03:55:39.684Z,54.55
2023-02-14T03:57:41.937Z,55.06
2023-02-14T03:59:43.228Z,55.17
2023-02-14T04:01:44.628Z,55.27
2023-02-14T04:03:46.055Z,55.17
2023-02-14T04:05:52.288Z,55.33
2023-02-14T04:07:53.718Z,55.54
2023-02-14T04:09:55.119Z,55.43
2023-02-14T04:11:56.458Z,55.84
2023-02-14T04:13:57.747Z,55.97
2023-02-14T04:15:59.124Z,55.93
2023-02-14T04:18:35.867Z,56.17
2023-02-14T04:20:37.304Z,55.84
2023-02-14T04:22:38.655Z,56.18
2023-02-14T04:24:40.050Z,56.14
2023-02-14T04:26:53.977Z,55.58
2023-02-14T04:28:55.289Z,55.45
2023-02-14T04:30:56.707Z,55.40
2023-02-14T04:32:58.159Z,55.28
2023-02-14T04:34:59.536Z,55.10
2023-02-14T04:37:00.873Z,54.96
2023-02-14T04:39:02.173Z,55.22
2023-02-14T04:41:03.478Z,55.06
2023-02-14T04:43:04.832Z,55.19
2023-02-14T04:45:06.140Z,54.92
2023-02-14T04:47:07.498Z,54.85
2023-02-14T04:49:08.796Z,54.76
2023-02-14T04:51:10.119Z,55.00
2023-02-14T04:53:11.482Z,55.02
2023-02-14T04:55:12.862Z,54.87
2023-02-14T04:57:14.155Z,54.35
2023-02-14T04:59:15.501Z,54.73
2023-02-14T05:01:16.887Z,54.46
2023-02-14T05:03:18.228Z,54.38
2023-02-14T05:05:19.575Z,54.36
2023-02-14T05:07:20.895Z,54.62
2023-02-14T05:09:22.190Z,54.41
2023-02-14T05:11:23.488Z,54.41
2023-02-14T05:13:24.782Z,54.40
2023-02-14T05:15:26.162Z,54.67
2023-02-14T05:17:27.494Z,55.25
2023-02-14T05:19:28.847Z,54.82
2023-02-14T05:21:33.066Z,55.03
2023-02-14T05:23:34.374Z,55.36
2023-02-14T05:25:35.712Z,55.47
2023-02-14T05:27:36.998Z,55.62
2023-02-14T05:29:38.483Z,55.47
2023-02-14T05:31:39.964Z,56.00
2023-02-14T05:33:41.341Z,55.68
2023-02-14T05:35:42.683Z,56.21
2023-02-14T05:37:44.024Z,55.88
2023-02-14T05:39:45.324Z,55.93
2023-02-14T05:41:46.626Z,56.00
2023-02-14T05:43:47.918Z,56.12
2023-02-14T05:45:49.251Z,56.24
2023-02-14T05:47:50.579Z,56.08
2023-02-14T05:49:51.867Z,56.42
2023-02-14T05:51:53.170Z,55.76
2023-02-14T05:53:54.512Z,55.96
2023-02-14T05:55:55.814Z,55.96
2023-02-14T05:57:57.161Z,56.00
2023-02-14T05:59:58.466Z,55.99
2023-02-14T06:01:59.844Z,55.32
2023-02-14T06:04:02.279Z,55.84
2023-02-14T06:06:03.668Z,55.83
2023-02-14T06:08:05.011Z,55.97
2023-02-14T06:10:09.857Z,56.05
2023-02-14T06:12:11.287Z,55.67
2023-02-14T06:14:12.575Z,55.52
2023-02-14T06:16:13.905Z,55.48
2023-02-14T06:18:15.226Z,55.25
2023-02-14T06:20:16.563Z,55.72
2023-02-14T06:22:17.863Z,54.92
2023-02-14T06:24:19.194Z,55.13
2023-02-14T06:26:20.591Z,55.14
2023-02-14T06:28:22.839Z,54.89
2023-02-14T06:30:24.208Z,55.02
2023-02-14T06:32:25.631Z,55.18
2023-02-14T06:34:26.934Z,54.88
2023-02-14T06:36:28.355Z,54.83
2023-02-14T06:38:29.708Z,55.35
2023-02-14T06:40:31.014Z,55.20
2023-02-14T06:42:32.294Z,55.11
2023-02-14T06:44:33.744Z,55.39
2023-02-14T06:46:35.090Z,55.30
2023-02-14T06:48:36.521Z,55.80
2023-02-14T06:50:37.920Z,56.35
2023-02-14T06:52:39.332Z,55.67
2023-02-14T06:54:40.681Z,55.83
2023-02-14T06:56:42.016Z,55.22
2023-02-14T06:58:43.324Z,55.74
2023-02-14T07:00:44.669Z,55.81
2023-02-14T07:02:46.358Z,55.66
2023-02-14T07:04:47.749Z,55.99
2023-02-14T07:06:49.077Z,55.81
2023-02-14T07:08:50.417Z,55.93
2023-02-14T07:10:51.717Z,56.02
2023-02-14T07:12:53.057Z,56.04
2023-02-14T07:14:54.346Z,55.52
2023-02-14T07:16:55.632Z,55.40
2023-02-14T07:18:57.348Z,55.88
2023-02-14T07:20:59.130Z,55.94
2023-02-14T07:23:00.597Z,56.01
2023-02-14T07:25:01.912Z,56.08
2023-02-14T07:27:03.243Z,56.22
2023-02-14T07:29:05.065Z,56.15
2023-02-14T07:31:06.533Z,56.48
2023-02-14T07:33:08.013Z,56.33
2023-02-14T07:35:09.385Z,56.00
2023-02-14T07:37:10.774Z,55.61
2023-02-14T07:39:12.079Z,55.71
2023-02-14T07:41:13.412Z,55.41
2023-02-14T07:43:14.788Z,55.46
2023-02-14T07:45:21.608Z,55.60
2023-02-14T07:47:25.076Z,55.31
2023-02-14T07:49:26.380Z,45.54
2023-02-14T07:51:27.723Z,45.89
2023-02-14T07:53:29.085Z,46.26
2023-02-14T07:55:30.472Z,45.80
2023-02-14T07:57:31.825Z,45.64
2023-02-14T07:59:33.212Z,45.74
2023-02-14T08:01:34.622Z,47.75
2023-02-14T08:03:35.990Z,45.67
2023-02-14T08:05:37.329Z,45.20
2023-02-14T08:07:38.727Z,45.88
2023-02-14T08:09:40.044Z,46.18
2023-02-14T08:12:00.063Z,46.96
2023-02-14T08:14:01.413Z,46.98
2023-02-14T08:16:05.941Z,47.41
2023-02-14T08:18:07.492Z,47.32
2023-02-14T08:20:08.826Z,47.56
2023-02-14T08:22:10.171Z,47.33
2023-02-14T08:24:11.489Z,47.40
2023-02-14T08:26:12.779Z,47.67
2023-02-14T08:28:14.950Z,47.51
2023-02-14T08:30:16.387Z,48.17
2023-02-14T08:32:20.924Z,48.14
2023-02-14T08:34:22.339Z,47.91
2023-02-14T08:36:23.714Z,48.23
2023-02-14T08:38:25.019Z,48.19
2023-02-14T08:40:26.452Z,48.19
2023-02-14T08:42:28.014Z,48.12
2023-02-14T08:44:29.496Z,48.19
2023-02-14T08:46:31.026Z,48.37
2023-02-14T08:48:32.590Z,48.46
2023-02-14T08:50:33.892Z,48.17
2023-02-14T08:52:35.263Z,48.27
2023-02-14T08:54:37.217Z,48.90
2023-02-14T08:56:38.740Z,48.83
2023-02-14T08:58:40.114Z,49.15
2023-02-14T09:00:41.529Z,49.01
2023-02-14T09:02:42.858Z,49.21
2023-02-14T09:04:44.614Z,49.05
2023-02-14T09:06:45.966Z,48.77
2023-02-14T09:08:47.395Z,50.80
2023-02-14T09:10:48.847Z,49.98
2023-02-14T09:12:50.244Z,49.14
2023-02-14T09:14:53.769Z,48.80
2023-02-14T09:16:55.218Z,48.38
2023-02-14T09:18:56.847Z,48.44
2023-02-14T09:20:58.461Z,49.13
2023-02-14T09:22:59.952Z,49.46
2023-02-14T09:25:01.280Z,47.61
2023-02-14T09:27:02.629Z,47.97
2023-02-14T09:29:03.965Z,48.15
2023-02-14T09:31:05.276Z,47.75
2023-02-14T09:33:07.467Z,47.68
2023-02-14T09:35:08.764Z,48.07
2023-02-14T09:37:28.817Z,47.99
2023-02-14T09:39:30.111Z,47.97
2023-02-14T09:41:31.420Z,48.49
2023-02-14T09:43:32.716Z,49.05
2023-02-14T09:45:34.111Z,48.32
2023-02-14T09:47:35.514Z,47.39
2023-02-14T09:49:36.880Z,46.54
2023-02-14T09:51:38.247Z,47.19
2023-02-14T09:53:39.506Z,47.95
2023-02-14T09:55:40.839Z,48.33
2023-02-14T09:57:42.209Z,48.47
2023-02-14T09:59:44.175Z,48.79
2023-02-14T10:01:45.463Z,48.53
2023-02-14T10:03:46.759Z,48.75
2023-02-14T10:05:48.056Z,48.40
2023-02-14T10:07:50.438Z,48.47
2023-02-14T10:09:51.769Z,48.73
2023-02-14T10:11:53.100Z,48.99
2023-02-14T10:13:54.407Z,48.58
2023-02-14T10:15:56.737Z,48.87
2023-02-14T10:17:58.051Z,48.61
2023-02-14T10:19:59.346Z,48.59
2023-02-14T10:22:00.828Z,50.01
2023-02-14T10:24:02.249Z,49.05
2023-02-14T10:26:03.789Z,48.41
2023-02-14T10:28:05.115Z,48.36
2023-02-14T10:30:06.501Z,48.71
2023-02-14T10:32:07.938Z,48.75
2023-02-14T10:34:09.338Z,49.68
2023-02-14T10:36:10.643Z,49.22
2023-02-14T10:38:14.323Z,48.35
2023-02-14T10:40:17.462Z,48.06
2023-02-14T10:42:18.901Z,48.84
2023-02-14T10:44:20.201Z,48.09
2023-02-14T10:46:21.583Z,48.39
2023-02-14T10:48:23.536Z,48.38
2023-02-14T10:50:24.889Z,48.77
2023-02-14T10:52:26.288Z,48.92
2023-02-14T10:54:28.155Z,48.60
2023-02-14T10:56:29.497Z,49.10
2023-02-14T10:58:30.794Z,49.48
2023-02-14T11:00:32.193Z,49.75
2023-02-14T11:02:33.613Z,49.28
2023-02-14T11:04:34.904Z,49.85
2023-02-14T11:06:36.247Z,49.91
2023-02-14T11:08:37.544Z,49.59
2023-02-14T11:10:38.855Z,49.57
2023-02-14T11:12:40.226Z,49.73
2023-02-14T11:14:41.535Z,49.80
2023-02-14T11:16:42.897Z,49.74
2023-02-14T11:18:44.276Z,49.11
2023-02-14T11:20:45.578Z,49.03
2023-02-14T11:22:46.906Z,49.09
2023-02-14T11:24:48.430Z,49.24
2023-02-14T11:26:49.795Z,48.65
2023-02-14T11:28:51.126Z,49.21
2023-02-14T11:30:52.494Z,49.62
2023-02-14T11:32:56.313Z,49.48
2023-02-14T11:34:58.066Z,49.49
2023-02-14T11:36:59.372Z,49.95
2023-02-14T11:39:00.709Z,49.83
2023-02-14T11:41:02.318Z,50.33
2023-02-14T11:43:14.028Z,50.40
2023-02-14T11:45:15.802Z,50.58
2023-02-14T11:47:17.213Z,50.32
2023-02-14T11:49:18.504Z,50.56
2023-02-14T11:51:20.324Z,50.51
2023-02-14T11:53:21.615Z,51.05
2023-02-14T11:55:22.970Z,50.94
2023-02-14T11:57:24.331Z,51.17
2023-02-14T11:59:25.628Z,51.44
2023-02-14T12:01:26.921Z,51.04
2023-02-14T12:03:28.258Z,51.21
2023-02-14T12:05:30.309Z,51.28
2023-02-14T12:07:31.640Z,51.57
2023-02-14T12:09:33.115Z,51.52
2023-02-14T12:11:34.436Z,51.91
2023-02-14T12:13:36.139Z,52.48
2023-02-14T12:15:37.856Z,52.14
2023-02-14T12:17:39.275Z,52.18
2023-02-14T12:19:40.602Z,52.28
2023-02-14T12:21:41.955Z,51.96
2023-02-14T12:23:43.286Z,52.73
2023-02-14T12:25:44.580Z,52.20
2023-02-14T12:27:45.900Z,51.76
2023-02-14T12:29:47.206Z,51.72
2023-02-14T12:31:48.607Z,51.44
2023-02-14T12:33:50.682Z,51.75
2023-02-14T12:35:52.071Z,51.35
2023-02-14T12:38:03.890Z,51.37
2023-02-14T12:40:05.859Z,51.29
2023-02-14T12:42:07.204Z,51.40
2023-02-14T12:44:08.540Z,51.04
2023-02-14T12:46:09.919Z,51.06
2023-02-14T12:48:11.239Z,51.10
2023-02-14T12:50:14.289Z,50.88
2023-02-14T12:52:15.600Z,50.77
2023-02-14T12:54:16.899Z,50.23
2023-02-14T12:56:18.212Z,50.34
2023-02-14T12:58:19.599Z,50.20
2023-02-14T13:00:20.902Z,49.89
2023-02-14T13:02:22.815Z,49.86
2023-02-14T13:04:24.674Z,49.73
2023-02-14T13:06:26.119Z,49.71
2023-02-14T13:08:27.409Z,49.85
2023-02-14T13:10:30.130Z,49.72
2023-02-14T13:12:31.522Z,49.68
2023-02-14T13:14:32.860Z,49.40
2023-02-14T13:16:35.235Z,49.86
2023-02-14T13:18:36.608Z,49.86
2023-02-14T13:20:38.146Z,49.75
2023-02-14T13:22:39.458Z,49.91
2023-02-14T13:24:40.823Z,50.13
2023-02-14T13:26:42.149Z,49.74
2023-02-14T13:28:43.439Z,50.12
2023-02-14T13:30:44.803Z,50.03
2023-02-14T13:32:46.159Z,50.27
2023-02-14T13:34:50.434Z,50.76
2023-02-14T13:36:51.759Z,50.48
2023-02-14T13:40:59.799Z,50.96
2023-02-14T13:43:02.272Z,50.66
2023-02-14T13:45:03.573Z,50.77
2023-02-14T13:47:04.872Z,50.91
2023-02-14T13:49:06.415Z,51.01
2023-02-14T13:51:07.715Z,51.03
2023-02-14T13:53:09.040Z,50.86
2023-02-14T13:55:10.388Z,50.85
2023-02-14T13:57:11.724Z,50.54
2023-02-14T13:59:13.122Z,50.62
2023-02-14T14:01:14.448Z,50.63
2023-02-14T14:03:15.827Z,50.63
2023-02-14T14:05:17.139Z,50.22
2023-02-14T14:07:18.443Z,50.66
2023-02-14T14:09:19.747Z,50.46
2023-02-14T14:11:21.334Z,50.44
2023-02-14T14:13:22.687Z,50.22
2023-02-14T14:15:24.002Z,49.70
2023-02-14T14:17:26.273Z,49.68
2023-02-14T14:19:30.452Z,49.69
2023-02-14T14:21:31.782Z,49.45
2023-02-14T14:23:33.193Z,49.33
2023-02-14T14:25:34.701Z,49.38
2023-02-14T14:27:35.999Z,49.02
2023-02-14T14:29:38.284Z,48.96
2023-02-14T14:31:39.744Z,49.45
2023-02-14T14:33:41.070Z,49.02
2023-02-14T14:35:45.268Z,49.29
2023-02-14T14:37:46.576Z,49.40
2023-02-14T14:39:47.879Z,48.96
2023-02-14T14:41:49.256Z,49.19
2023-02-14T14:43:50.586Z,49.20
2023-02-14T14:45:53.379Z,49.24
2023-02-14T14:47:54.716Z,49.25
2023-02-14T14:49:56.858Z,49.23
2023-02-14T14:51:58.230Z,49.38
2023-02-14T14:53:59.551Z,49.93
2023-02-14T14:56:01.270Z,49.53
2023-02-14T14:58:05.599Z,50.04
2023-02-14T15:00:09.314Z,49.96
2023-02-14T15:02:10.661Z,50.25
2023-02-14T15:04:12.491Z,49.85
2023-02-14T15:06:13.911Z,50.21
2023-02-14T15:08:15.300Z,50.46
2023-02-14T15:10:16.643Z,50.54
2023-02-14T15:12:36.480Z,50.36
2023-02-14T15:14:37.817Z,50.19
2023-02-14T15:16:39.313Z,50.48
2023-02-14T15:18:40.644Z,50.35
2023-02-14T15:20:42.032Z,50.59
2023-02-14T15:22:44.263Z,50.33
2023-02-14T15:24:45.619Z,50.30
2023-02-14T15:26:48.030Z,50.67
2023-02-14T15:28:49.375Z,50.38
2023-02-14T15:30:50.780Z,50.48
2023-02-14T15:32:52.208Z,50.28
2023-02-14T15:34:53.632Z,50.14
2023-02-14T15:36:57.628Z,49.85
2023-02-14T15:38:59.310Z,50.10
2023-02-14T15:41:00.948Z,49.75
2023-02-14T15:43:02.480Z,49.41
2023-02-14T15:45:03.823Z,49.31
2023-02-14T15:47:05.672Z,49.28
2023-02-14T15:49:07.076Z,49.39
2023-02-14T15:51:08.419Z,49.13
2023-02-14T15:53:09.743Z,49.77
2023-02-14T15:55:11.140Z,49.50
2023-02-14T15:57:12.432Z,49.21
2023-02-14T15:59:13.912Z,49.05
2023-02-14T16:01:15.240Z,49.42
2023-02-14T16:03:16.955Z,49.37
2023-02-14T16:05:18.394Z,49.53
2023-02-14T16:07:19.904Z,49.27
2023-02-14T16:09:21.201Z,49.08
2023-02-14T16:11:22.554Z,49.16
2023-02-14T16:13:24.252Z,49.57
2023-02-14T16:15:28.518Z,49.58
2023-02-14T16:17:29.851Z,49.54
2023-02-14T16:19:31.211Z,49.64
2023-02-14T16:21:32.559Z,49.54
2023-02-14T16:23:37.635Z,49.89
2023-02-14T16:25:38.936Z,50.05
2023-02-14T16:27:40.232Z,50.11
2023-02-14T16:29:41.621Z,50.17
2023-02-14T16:31:51.906Z,50.25
2023-02-14T16:34:02.403Z,50.03
2023-02-14T16:36:06.240Z,50.37
2023-02-14T16:38:07.637Z,50.16
2023-02-14T16:40:08.980Z,50.36
2023-02-14T16:42:10.270Z,50.00
2023-02-14T16:44:11.607Z,50.16
2023-02-14T16:46:13.480Z,50.03
2023-02-14T16:48:17.672Z,50.68
2023-02-14T16:50:20.404Z,50.38
2023-02-14T16:52:23.393Z,50.49
2023-02-14T16:54:24.948Z,50.15
2023-02-14T16:56:26.250Z,49.91
2023-02-14T16:58:27.607Z,50.42
2023-02-14T17:00:28.959Z,50.09
2023-02-14T17:02:30.609Z,50.22
2023-02-14T17:04:32.040Z,49.52
2023-02-14T17:06:33.437Z,49.61
2023-02-14T17:08:34.740Z,49.43
2023-02-14T17:10:36.103Z,49.11
2023-02-14T17:12:37.442Z,49.50
2023-02-14T17:14:38.780Z,48.95
2023-02-14T17:16:40.080Z,48.95
2023-02-14T17:18:42.935Z,48.99
2023-02-14T17:20:44.433Z,49.36
2023-02-14T17:22:48.394Z,48.95
2023-02-14T17:24:49.783Z,48.97
2023-02-14T17:26:51.381Z,48.92
2023-02-14T17:28:52.767Z,49.15
2023-02-14T17:30:54.219Z,49.46
2023-02-14T17:32:55.758Z,49.01
2023-02-14T17:34:57.210Z,49.03
2023-02-14T17:36:58.835Z,49.20
2023-02-14T17:39:00.705Z,49.70
2023-02-14T17:41:02.428Z,49.32
2023-02-14T17:43:03.928Z,49.76
2023-02-14T17:45:08.151Z,49.48
2023-02-14T17:47:09.555Z,49.47
2023-02-14T17:49:10.855Z,49.95
2023-02-14T17:51:12.167Z,50.02
2023-02-14T17:53:13.463Z,50.08
2023-02-14T17:55:15.858Z,49.94
2023-02-14T17:57:17.259Z,50.03
2023-02-14T17:59:18.620Z,50.07
2023-02-14T18:01:20.004Z,50.19
2023-02-14T18:03:21.633Z,49.90
2023-02-14T18:05:22.947Z,50.20
2023-02-14T18:07:24.305Z,50.25
2023-02-14T18:09:25.895Z,50.34
2023-02-14T18:11:27.665Z,50.19
2023-02-14T18:13:28.966Z,50.26
2023-02-14T18:15:30.809Z,50.46
2023-02-14T18:17:32.223Z,50.22
2023-02-14T18:19:33.700Z,49.81
2023-02-14T18:21:36.055Z,50.06
2023-02-14T18:23:37.506Z,49.87
2023-02-14T18:25:38.988Z,49.90
2023-02-14T18:27:40.350Z,49.73
2023-02-14T18:29:41.664Z,49.85
2023-02-14T18:31:43.012Z,50.15
2023-02-14T18:33:44.442Z,49.97
2023-02-14T18:35:48.571Z,50.29
2023-02-14T18:37:49.868Z,50.02
2023-02-14T18:39:51.355Z,50.09
2023-02-14T18:41:53.005Z,50.08
2023-02-14T18:43:54.533Z,50.04
2023-02-14T18:45:55.905Z,49.66
2023-02-14T18:47:57.975Z,49.36
2023-02-14T18:49:59.315Z,49.00
2023-02-14T18:52:00.647Z,49.07
2023-02-14T18:54:01.942Z,48.86
2023-02-14T18:56:03.243Z,48.95
2023-02-14T18:58:06.801Z,48.43
2023-02-14T19:00:17.963Z,48.62
2023-02-14T19:02:19.306Z,48.33
2023-02-14T19:04:21.658Z,48.24
2023-02-14T19:06:23.392Z,48.53
2023-02-14T19:08:24.709Z,48.29
2023-02-14T19:10:26.114Z,48.42
2023-02-14T19:12:30.164Z,48.01
2023-02-14T19:14:31.464Z,48.28
2023-02-14T19:16:33.247Z,48.24
2023-02-14T19:18:34.685Z,48.46
2023-02-14T19:20:36.035Z,48.52
2023-02-14T19:22:37.496Z,48.29
2023-02-14T19:24:38.795Z,48.60
2023-02-14T19:26:40.628Z,48.37
2023-02-14T19:28:42.317Z,48.79
2023-02-14T19:30:43.822Z,48.77
2023-02-14T19:32:45.431Z,48.83
2023-02-14T19:34:46.827Z,49.06
2023-02-14T19:36:48.224Z,48.82
2023-02-14T19:38:50.145Z,49.02
2023-02-14T19:40:52.391Z,49.08
2023-02-14T19:42:53.712Z,49.24
2023-02-14T19:44:55.048Z,49.30
2023-02-14T19:46:56.730Z,49.06
2023-02-14T19:48:58.119Z,49.22
2023-02-14T19:51:00.704Z,48.95
2023-02-14T19:53:02.274Z,49.14
2023-02-14T19:55:03.924Z,49.26
2023-02-14T19:57:05.338Z,49.08
2023-02-14T19:59:09.558Z,48.95
2023-02-14T20:01:11.028Z,49.29
2023-02-14T20:03:12.439Z,49.20
2023-02-14T20:05:13.760Z,48.55
2023-02-14T20:07:16.749Z,48.59
2023-02-14T20:09:18.097Z,48.84
2023-02-14T20:11:19.398Z,48.59
2023-02-14T20:13:23.723Z,48.18
2023-02-14T20:15:26.382Z,48.18
2023-02-14T20:17:27.720Z,47.76
2023-02-14T20:19:31.729Z,47.86
2023-02-14T20:21:35.917Z,47.99
2023-02-14T20:23:37.283Z,47.53
2023-02-14T20:25:38.593Z,47.56
2023-02-14T20:27:40.115Z,47.46
2023-02-14T20:29:46.107Z,47.97
2023-02-14T20:31:48.195Z,47.90
2023-02-14T20:33:51.572Z,47.58
2023-02-14T20:35:52.918Z,47.93
2023-02-14T20:37:55.041Z,47.60
2023-02-14T20:39:56.457Z,48.53
2023-02-14T20:41:57.787Z,48.11
2023-02-14T20:43:59.085Z,48.34
2023-02-14T20:46:00.579Z,48.08
2023-02-14T20:48:04.216Z,47.99
2023-02-14T20:50:05.533Z,47.90
2023-02-14T20:52:06.835Z,48.36
2023-02-14T20:54:08.132Z,48.65
2023-02-14T20:56:09.436Z,48.45
2023-02-14T20:58:10.778Z,48.34
2023-02-14T21:00:12.150Z,48.72
2023-02-14T21:02:13.565Z,48.71
2023-02-14T21:04:17.784Z,48.96
2023-02-14T21:06:19.099Z,48.74
2023-02-14T21:08:20.399Z,48.89
2023-02-14T21:10:21.736Z,49.33
2023-02-14T21:12:23.075Z,49.13
2023-02-14T21:14:24.382Z,49.33
2023-02-14T21:16:25.675Z,49.30
2023-02-14T21:18:27.010Z,49.00
2023-02-14T21:20:28.348Z,49.22
2023-02-14T21:22:29.654Z,49.21
2023-02-14T21:24:30.995Z,49.30
2023-02-14T21:26:32.317Z,49.11
2023-02-14T21:28:33.655Z,49.14
2023-02-14T21:30:38.059Z,48.48
2023-02-14T21:32:39.375Z,48.41
2023-02-14T21:34:40.712Z,48.33
2023-02-14T21:36:42.024Z,48.25
2023-02-14T21:38:46.062Z,48.21
2023-02-14T21:40:47.407Z,47.80
2023-02-14T21:42:48.691Z,47.79
2023-02-14T21:45:08.987Z,47.68
2023-02-14T21:47:10.315Z,47.95
2023-02-14T21:49:30.199Z,47.86
2023-02-14T21:51:31.617Z,48.00
2023-02-14T21:53:32.935Z,48.24
2023-02-14T21:55:34.255Z,47.99
2023-02-14T21:57:35.586Z,48.33
2023-02-14T21:59:36.889Z,48.15
2023-02-14T22:01:38.262Z,48.05
2023-02-14T22:03:39.611Z,48.35
2023-02-14T22:05:43.698Z,48.58
2023-02-14T22:07:45.107Z,48.72
2023-02-14T22:09:46.430Z,48.39
2023-02-14T22:11:47.733Z,48.71
2023-02-14T22:13:49.066Z,48.62
2023-02-14T22:15:50.429Z,48.67
2023-02-14T22:17:51.739Z,49.10
2023-02-14T22:19:53.073Z,48.82
2023-02-14T22:21:54.411Z,49.53
2023-02-14T22:23:55.710Z,48.00
2023-02-14T22:25:57.062Z,47.96
2023-02-14T22:27:58.408Z,49.14
2023-02-14T22:29:59.847Z,48.21
2023-02-14T22:32:02.355Z,48.30
2023-02-14T22:34:03.739Z,48.73
2023-02-14T22:36:05.049Z,48.78
2023-02-14T22:38:07.578Z,48.65
2023-02-14T22:40:08.876Z,48.87
2023-02-14T22:42:10.366Z,48.86
2023-02-14T22:44:11.693Z,49.56
2023-02-14T22:46:13.064Z,49.71
2023-02-14T22:48:15.170Z,50.02
2023-02-14T22:50:16.499Z,49.98
2023-02-14T22:52:17.836Z,49.90
2023-02-14T22:54:19.136Z,49.90
2023-02-14T22:56:20.484Z,49.78
2023-02-14T22:58:21.843Z,50.10
2023-02-14T23:00:23.184Z,49.80
2023-02-14T23:02:24.575Z,49.55
2023-02-14T23:04:25.930Z,49.71
2023-02-14T23:06:27.265Z,49.54
2023-02-14T23:08:28.584Z,49.91
2023-02-14T23:10:29.924Z,48.58
2023-02-14T23:12:49.799Z,48.53
2023-02-14T23:15:09.718Z,47.21
2023-02-14T23:17:26.105Z,47.77
2023-02-14T23:19:46.216Z,48.33
2023-02-14T23:21:56.424Z,48.70
2023-02-14T23:23:57.735Z,50.10
2023-02-14T23:25:59.239Z,49.77
2023-02-14T23:28:00.769Z,49.78
2023-02-14T23:30:02.855Z,49.86
2023-02-14T23:32:04.250Z,50.30
2023-02-14T23:34:05.612Z,49.87
2023-02-14T23:36:06.949Z,50.21
2023-02-14T23:38:08.299Z,50.12
2023-02-14T23:40:10.022Z,50.33
2023-02-14T23:42:11.503Z,50.04
2023-02-14T23:44:12.840Z,50.39
2023-02-14T23:48:15.461Z,50.50
2023-02-14T23:50:16.826Z,50.26
2023-02-14T23:52:18.117Z,50.44
2023-02-14T23:54:19.458Z,50.43
2023-02-14T23:56:20.844Z,50.70
2023-02-14T23:58:22.131Z,50.50
